Time;durP1;ratioP1;P1;durP2;ratioP2;P2;SDS_P1;SDS_P2;PMS_P1;PMS_P2;Temp;Humidity;BMP_temperature;BMP_pressure;BME280_temperature;BME280_humidity;BME280_pressure;Samples;Min_cycle;Max_cycle;Signal;HPM_P1;HPM_P2
2021/05/19 00:00:26;;;;;;;0.40;0.40;;;8.60;73.20;;;11.10;61.04;101575.91;5046754;27;97820;-71
2021/05/19 00:02:55;;;;;;;1.17;0.75;;;8.50;73.20;;;11.11;61.42;101577.53;5042160;27;96935;-70
2021/05/19 00:05:24;;;;;;;0.90;0.90;;;8.50;73.30;;;11.12;61.08;101573.75;5026684;27;96960;-71
2021/05/19 00:07:52;;;;;;;5.22;1.27;;;8.50;73.30;;;11.09;61.09;101574.31;5030965;27;98686;-70
2021/05/19 00:10:21;;;;;;;0.68;0.68;;;8.50;73.30;;;11.12;61.13;101573.75;5045649;27;96880;-70
2021/05/19 00:12:52;;;;;;;1.67;1.15;;;8.40;73.30;;;11.11;61.33;101577.53;5010191;27;96821;-71
2021/05/19 00:15:20;;;;;;;1.75;0.98;;;8.40;73.40;;;11.11;60.85;101577.53;5049946;27;97411;-71
2021/05/19 00:17:48;;;;;;;0.10;0.10;;;8.40;73.40;;;11.10;60.88;101567.06;5023479;27;97920;-70
2021/05/19 00:20:18;;;;;;;1.13;1.02;;;8.40;73.40;;;11.06;60.89;101574.09;5046656;27;97402;-71
2021/05/19 00:22:47;;;;;;;0.20;0.20;;;8.30;73.40;;;11.06;60.95;101574.09;5041351;27;97708;-71
2021/05/19 00:25:16;;;;;;;0.95;0.95;;;8.30;73.40;;;11.07;60.88;101571.09;5047342;27;96744;-71
2021/05/19 00:27:45;;;;;;;0.40;0.40;;;8.30;73.40;;;11.08;60.43;101572.69;5046711;27;97924;-71
2021/05/19 00:30:18;;;;;;;4.90;1.30;;;8.30;73.50;;;11.11;60.61;101576.72;5041945;27;96824;-70
2021/05/19 00:32:46;;;;;;;0.50;0.50;;;8.30;73.50;;;11.13;60.84;101569.19;5045153;27;96905;-70
2021/05/19 00:35:15;;;;;;;0.10;0.10;;;8.30;73.50;;;11.17;60.65;101571.00;5027906;27;96670;-70
2021/05/19 00:37:44;;;;;;;2.80;1.20;;;8.30;73.50;;;11.13;60.71;101572.69;5030364;27;97927;-71
2021/05/19 00:40:15;;;;;;;0.32;0.32;;;8.30;73.60;;;11.19;60.14;101563.47;5029749;27;97747;-70
2021/05/19 00:42:43;;;;;;;0.40;0.40;;;8.30;73.60;;;11.18;60.11;101563.75;5048722;27;97370;-70
2021/05/19 00:45:14;;;;;;;0.10;0.10;;;8.30;73.60;;;11.21;60.10;101565.84;5033537;27;96984;-71
2021/05/19 00:47:44;;;;;;;1.95;1.50;;;8.30;73.60;;;11.26;60.56;101565.84;5026354;27;97802;-70
2021/05/19 00:50:18;;;;;;;1.55;0.60;;;8.30;73.60;;;11.31;60.37;101566.56;5011406;27;100331;-70
2021/05/19 00:52:47;;;;;;;0.45;0.45;;;8.30;73.60;;;11.32;60.40;101562.00;5031285;27;98087;-70
2021/05/19 00:55:18;;;;;;;0.90;0.90;;;8.40;73.60;;;11.37;59.96;101561.94;5028604;27;96791;-70
2021/05/19 00:57:50;;;;;;;0.35;0.35;;;8.40;74.20;;;11.38;60.32;101561.63;5024703;27;97963;-70
2021/05/19 01:00:25;;;;;;;3.13;1.35;;;8.40;73.60;;;11.41;60.39;101560.28;5011183;27;97197;-70
2021/05/19 01:03:13;;;;;;;0.43;0.43;;;8.40;73.60;;;11.44;60.08;101557.81;5047808;27;96830;-70
2021/05/19 01:05:45;;;;;;;0.28;0.28;;;8.40;73.50;;;11.45;59.55;101559.41;5045837;27;97076;-70
2021/05/19 01:11:12;;;;;;;0.60;0.60;;;8.50;73.50;;;11.37;60.25;101551.97;5043739;27;98041;-70
2021/05/19 01:13:45;;;;;;;0.65;0.65;;;8.50;73.40;;;11.38;60.34;101550.13;5048369;27;97489;-71
2021/05/19 01:16:16;;;;;;;0.70;0.50;;;8.50;73.40;;;11.30;60.28;101554.22;5015851;27;97339;-70
2021/05/19 01:18:45;;;;;;;0.63;0.63;;;8.40;73.30;;;11.24;60.59;101547.31;5025076;27;96947;-70
2021/05/19 01:21:14;;;;;;;0.43;0.43;;;8.40;73.30;;;11.26;59.81;101547.06;5047331;27;98255;-71
2021/05/19 01:23:43;;;;;;;1.35;0.70;;;8.40;73.40;;;11.29;60.45;101552.63;5046655;27;96784;-70
2021/05/19 01:26:13;;;;;;;0.80;0.80;;;8.40;73.40;;;11.30;60.37;101548.84;5034951;27;96962;-70
2021/05/19 01:28:43;;;;;;;1.40;1.30;;;8.30;73.40;;;11.27;59.70;101554.78;5016070;27;97819;-70
2021/05/19 01:31:17;;;;;;;0.30;0.30;;;8.30;73.40;;;11.21;59.96;101547.91;5038356;27;96893;-70
2021/05/19 01:33:48;;;;;;;0.28;0.28;;;8.30;73.40;;;11.14;60.14;101549.31;5048056;27;96842;-70
2021/05/19 01:36:17;;;;;;;0.40;0.40;;;8.20;73.40;;;11.09;60.13;101552.84;5049838;27;97059;-70
2021/05/19 01:38:47;;;;;;;0.68;0.68;;;8.20;73.50;;;11.06;60.22;101541.91;5036236;27;96945;-70
2021/05/19 01:41:15;;;;;;;0.17;0.17;;;8.20;73.50;;;11.07;60.08;101540.81;5033806;27;96948;-70
2021/05/19 01:43:49;;;;;;;0.75;0.75;;;8.20;73.50;;;11.02;60.63;101538.97;5048399;27;97780;-70
2021/05/19 01:46:44;;;;;;;4.23;0.87;;;8.10;73.50;;;10.94;60.31;101538.78;5034381;27;97168;-70
2021/05/19 01:49:15;;;;;;;0.77;0.77;;;8.10;73.50;;;10.83;61.03;101529.28;5048124;27;97834;-70
2021/05/19 01:51:45;;;;;;;0.40;0.22;;;8.00;73.50;;;10.81;61.02;101534.13;5045933;27;97654;-70
2021/05/19 01:54:15;;;;;;;0.30;0.30;;;8.00;73.60;;;10.80;60.74;101529.03;5032210;27;96708;-70
2021/05/19 01:56:44;;;;;;;0.85;0.52;;;8.00;73.60;;;10.79;61.13;101530.13;5033960;27;97134;-70
2021/05/19 01:59:13;;;;;;;1.42;0.90;;;8.00;73.70;;;10.90;60.66;101524.38;5033143;27;97058;-70
2021/05/19 02:01:45;;;;;;;1.33;0.57;;;8.00;73.80;;;10.90;60.53;101533.22;5032962;27;97624;-70
2021/05/19 02:04:18;;;;;;;0.52;0.52;;;8.00;73.80;;;10.84;60.53;101525.50;5051305;27;96823;-70
2021/05/19 02:06:55;;;;;;;0.20;0.20;;;8.00;74.40;;;10.83;60.80;101525.81;5031007;27;97850;-70
2021/05/19 02:09:30;;;;;;;2.13;0.70;;;8.00;73.80;;;10.90;60.40;101533.22;5016043;27;96886;-70
2021/05/19 02:12:06;;;;;;;0.50;0.50;;;8.00;73.70;;;10.80;60.42;101529.03;5043914;27;97656;-70
2021/05/19 02:14:37;;;;;;;0.43;0.43;;;8.00;73.70;;;10.75;60.54;101521.84;5028319;27;96867;-70
2021/05/19 02:17:07;;;;;;;0.22;0.22;;;7.90;73.70;;;10.71;61.03;101523.50;5033332;27;96983;-72
2021/05/19 02:19:38;;;;;;;0.20;0.20;;;7.90;73.70;;;10.69;60.74;101532.91;5029457;27;98283;-70
2021/05/19 02:22:09;;;;;;;0.90;0.90;;;7.90;73.70;;;10.68;60.99;101531.31;5030601;27;96850;-70
2021/05/19 02:24:50;;;;;;;0.28;0.28;;;7.80;73.70;;;10.59;61.06;101538.38;5029730;27;97366;-70
2021/05/19 02:27:18;;;;;;;0.10;0.10;;;7.80;73.70;;;10.55;61.13;101534.66;5047826;27;96953;-70
2021/05/19 02:29:54;;;;;;;1.33;1.23;;;7.80;73.80;;;10.51;60.94;101533.59;5029726;27;96919;-71
2021/05/19 02:32:24;;;;;;;1.35;0.50;;;7.70;73.80;;;10.45;60.74;101530.19;5029145;27;96955;-72
2021/05/19 02:34:54;;;;;;;0.13;0.13;;;7.60;73.70;;;10.42;61.03;101529.94;5044738;27;97400;-72
2021/05/19 02:37:22;;;;;;;2.38;1.70;;;7.60;73.80;;;10.42;60.84;101535.28;5044593;27;97979;-72
2021/05/19 02:39:52;;;;;;;0.50;0.50;;;7.60;73.90;;;10.42;60.78;101536.09;5031694;27;97938;-72
2021/05/19 02:42:20;;;;;;;0.70;0.70;;;7.60;74.00;;;10.39;60.87;101525.13;5045934;27;97673;-72
2021/05/19 02:44:51;;;;;;;5.68;0.73;;;7.50;74.00;;;10.40;60.94;101530.22;5013403;27;97798;-73
2021/05/19 02:47:20;;;;;;;0.30;0.30;;;7.50;74.10;;;10.40;60.82;101532.09;5045126;27;98464;-72
2021/05/19 02:49:48;;;;;;;0.38;0.38;;;7.50;74.10;;;10.39;60.83;101527.81;5004395;27;97849;-72
2021/05/19 02:52:17;;;;;;;0.50;0.50;;;7.50;74.10;;;10.36;60.82;101529.19;5032309;27;96824;-73
2021/05/19 02:54:45;;;;;;;1.25;1.15;;;7.50;74.10;;;10.38;60.72;101528.91;5045744;27;96897;-72
2021/05/19 02:57:15;;;;;;;0.40;0.40;;;7.50;74.10;;;10.35;60.86;101524.09;5030694;27;97267;-73
2021/05/19 02:59:43;;;;;;;0.75;0.25;;;7.40;74.00;;;10.31;60.95;101528.44;5033558;27;98715;-71
2021/05/19 03:02:11;;;;;;;3.22;0.98;;;7.40;74.00;;;10.35;60.60;101529.47;5023200;27;97357;-70
2021/05/19 03:04:39;;;;;;;2.28;1.25;;;7.40;74.10;;;10.33;60.83;101531.63;5024979;27;97063;-71
2021/05/19 03:07:08;;;;;;;2.75;1.40;;;7.40;74.10;;;10.40;60.64;101534.78;5049134;27;96834;-70
2021/05/19 03:09:36;;;;;;;1.27;1.17;;;7.40;74.10;;;10.40;60.33;101532.09;5029958;27;97887;-70
2021/05/19 03:12:06;;;;;;;0.77;0.77;;;7.40;74.10;;;10.36;60.31;101534.56;5045442;27;97657;-70
2021/05/19 03:14:35;;;;;;;1.48;1.38;;;7.40;74.10;;;10.37;60.30;101535.34;5046975;27;97477;-70
2021/05/19 03:17:04;;;;;;;0.43;0.43;;;7.40;74.10;;;10.42;60.43;101538.78;5025488;27;601301;-70
2021/05/19 03:19:33;;;;;;;4.55;0.93;;;7.50;74.10;;;10.47;60.12;101532.56;5048605;27;97918;-70
2021/05/19 03:22:03;;;;;;;1.52;0.88;;;7.40;74.10;;;10.47;60.11;101532.56;5046456;27;97996;-70
2021/05/19 03:24:31;;;;;;;0.45;0.45;;;7.50;74.10;;;10.50;59.83;101537.34;5028164;27;96848;-70
2021/05/19 03:26:59;;;;;;;0.60;0.60;;;7.50;74.10;;;10.49;60.24;101541.13;5026266;27;97538;-70
2021/05/19 03:29:29;;;;;;;0.28;0.28;;;7.50;74.00;;;10.46;60.12;101541.69;5016611;27;98444;-70
2021/05/19 03:31:58;;;;;;;0.30;0.30;;;7.50;74.10;;;10.51;60.22;101542.44;5043690;27;97988;-70
2021/05/19 03:34:30;;;;;;;1.30;0.88;;;7.50;74.10;;;10.49;60.05;101541.13;5047741;27;97291;-70
2021/05/19 03:36:58;;;;;;;0.20;0.20;;;7.50;74.10;;;10.57;59.69;101540.53;5044770;27;97385;-70
2021/05/19 03:39:27;;;;;;;0.43;0.43;;;7.50;74.10;;;10.62;59.97;101537.81;5044623;27;96800;-70
2021/05/19 03:41:55;;;;;;;0.52;0.52;;;7.50;74.00;;;10.70;59.92;101542.53;5046549;27;97772;-70
2021/05/19 03:44:23;;;;;;;0.77;0.77;;;7.50;74.00;;;10.77;59.74;101535.78;5011511;27;97096;-70
2021/05/19 03:46:53;;;;;;;0.77;0.57;;;7.50;74.00;;;10.80;59.69;101529.03;5029554;27;97561;-71
2021/05/19 03:49:23;;;;;;;0.50;0.50;;;7.60;74.10;;;10.82;59.35;101538.41;5029719;27;97906;-70
2021/05/19 03:51:51;;;;;;;0.80;0.80;;;7.60;74.00;;;10.72;60.17;101532.34;5014118;27;97841;-71
2021/05/19 03:54:19;;;;;;;0.63;0.57;;;7.60;74.00;;;10.55;60.44;101540.78;5042893;27;96740;-70
2021/05/19 03:56:50;;;;;;;0.47;0.43;;;7.60;74.50;;;10.58;60.24;101534.09;5031714;27;96955;-71
2021/05/19 03:59:18;;;;;;;0.40;0.40;;;7.70;74.00;;;10.60;60.38;101542.66;5043842;27;98874;-70
2021/05/19 04:01:46;;;;;;;0.40;0.40;;;7.70;74.00;;;10.65;60.58;101542.59;5025163;27;98046;-70
2021/05/19 04:04:15;;;;;;;0.88;0.88;;;7.70;74.00;;;10.69;60.44;101543.63;5032251;27;96832;-70
2021/05/19 04:06:44;;;;;;;0.55;0.55;;;7.70;74.00;;;10.75;60.38;101539.81;5048292;27;96958;-70
2021/05/19 04:09:12;;;;;;;0.50;0.50;;;7.80;74.10;;;10.86;59.96;101538.66;5029189;27;97450;-70
2021/05/19 04:11:42;;;;;;;2.22;1.00;;;7.80;74.00;;;10.90;60.24;101540.44;5031100;27;97080;-71
2021/05/19 04:14:10;;;;;;;0.65;0.65;;;7.80;74.00;;;10.95;60.06;101535.84;5018334;27;97405;-70
2021/05/19 04:16:39;;;;;;;0.32;0.32;;;7.90;74.00;;;11.09;60.11;101536.75;5027218;27;97122;-70
2021/05/19 04:19:08;;;;;;;0.65;0.65;;;8.00;74.00;;;11.18;60.02;101544.97;5046821;27;96912;-70
2021/05/19 04:21:36;;;;;;;0.40;0.40;;;8.00;73.90;;;11.23;59.38;101543.03;5045543;27;98023;-70
2021/05/19 04:24:06;;;;;;;0.30;0.30;;;8.10;73.90;;;11.28;59.43;101550.25;5048926;27;97196;-70
2021/05/19 04:26:35;;;;;;;0.57;0.57;;;8.10;73.80;;;11.28;59.51;101550.25;5027208;27;96979;-71
2021/05/19 04:29:04;;;;;;;3.00;1.10;;;8.20;73.80;;;11.36;59.72;101552.28;5025491;27;96749;-71
2021/05/19 04:31:33;;;;;;;1.50;1.40;;;8.20;73.80;;;11.42;59.06;101556.50;5048954;27;98792;-70
2021/05/19 04:34:04;;;;;;;1.63;1.20;;;8.20;73.80;;;11.47;59.02;101553.75;5045212;27;97030;-70
2021/05/19 04:36:39;;;;;;;0.85;0.57;;;8.20;73.80;;;11.48;59.49;101555.34;5032006;27;96919;-71
2021/05/19 04:39:08;;;;;;;0.45;0.45;;;8.30;73.90;;;11.55;59.32;101559.31;5030415;27;98487;-70
2021/05/19 04:41:36;;;;;;;3.20;0.90;;;8.30;73.90;;;11.59;59.15;101557.66;5024196;27;98014;-70
2021/05/19 04:44:05;;;;;;;1.20;0.90;;;8.30;73.80;;;11.65;58.64;101556.50;5032495;27;97330;-70
2021/05/19 04:46:34;;;;;;;1.17;1.13;;;8.40;73.90;;;11.66;58.88;101555.41;5044499;27;96756;-70
2021/05/19 04:49:04;;;;;;;0.65;0.65;;;8.40;73.90;;;11.72;59.09;101561.50;5047233;27;97822;-70
2021/05/19 04:51:33;;;;;;;1.13;1.05;;;8.40;73.80;;;11.80;59.41;101563.53;5026631;27;96935;-70
2021/05/19 04:54:02;;;;;;;1.83;1.63;;;8.50;73.90;;;11.84;59.43;101570.75;5047148;27;96738;-70
2021/05/19 04:56:31;;;;;;;0.68;0.68;;;8.50;73.90;;;11.92;58.49;101572.00;5014959;27;97268;-70
2021/05/19 04:58:59;;;;;;;1.25;1.15;;;8.60;73.90;;;11.96;59.29;101568.41;5048348;27;98492;-70
2021/05/19 05:01:30;;;;;;;0.20;0.20;;;8.60;73.80;;;11.94;59.37;101567.91;5044755;27;96712;-70
2021/05/19 05:03:58;;;;;;;0.25;0.25;;;8.60;73.80;;;12.07;59.21;101572.56;5048158;27;97507;-70
2021/05/19 05:06:26;;;;;;;0.80;0.80;;;8.70;73.90;;;12.02;58.68;101567.28;5046173;27;96764;-70
2021/05/19 05:08:55;;;;;;;0.60;0.57;;;8.70;73.80;;;12.04;59.58;101573.16;5048334;27;97350;-70
2021/05/19 05:11:23;;;;;;;2.78;0.90;;;8.80;73.90;;;12.17;58.85;101568.94;5045381;27;96825;-70
2021/05/19 05:13:52;;;;;;;0.47;0.47;;;8.80;73.80;;;12.25;58.24;101570.97;5025700;27;96888;-70
2021/05/19 05:16:20;;;;;;;2.47;0.98;;;8.90;73.90;;;12.18;58.91;101573.22;5046430;27;96795;-70
2021/05/19 05:18:49;;;;;;;0.90;0.77;;;8.90;73.80;;;12.25;59.67;101570.97;5046721;27;97498;-70
2021/05/19 05:21:20;;;;;;;4.22;1.20;;;9.00;73.90;;;12.33;58.93;101572.97;5031148;27;99244;-70
2021/05/19 05:23:48;;;;;;;0.57;0.57;;;9.00;73.80;;;12.42;58.70;101573.91;5047850;27;97046;-70
2021/05/19 05:26:18;;;;;;;8.82;1.85;;;9.10;73.90;;;12.50;59.01;101576.72;5008346;27;97427;-70
2021/05/19 05:28:47;;;;;;;9.35;1.48;;;9.10;73.80;;;12.64;58.34;101575.69;5025531;27;96904;-71
2021/05/19 05:31:16;;;;;;;1.75;1.48;;;9.20;73.80;;;12.70;58.37;101574.50;5046301;27;97761;-71
2021/05/19 05:33:44;;;;;;;1.83;1.65;;;9.30;73.90;;;12.72;58.43;101572.31;5043145;27;96706;-70
2021/05/19 05:36:14;;;;;;;1.45;0.75;;;9.30;73.80;;;12.78;58.65;101573.03;5033256;27;97417;-72
2021/05/19 05:38:42;;;;;;;0.80;0.57;;;9.30;73.80;;;12.78;58.34;101571.16;5030484;27;97108;-71
2021/05/19 05:41:11;;;;;;;5.18;2.45;;;9.40;73.80;;;12.83;58.75;101578.31;5024285;27;97348;-71
2021/05/19 05:43:39;;;;;;;10.75;1.92;;;9.40;73.80;;;12.80;58.55;101571.66;5049102;27;96781;-71
2021/05/19 05:46:07;;;;;;;0.70;0.70;;;9.40;73.80;;;12.83;58.81;101581.00;5044173;27;96934;-71
2021/05/19 05:48:36;;;;;;;2.28;2.15;;;9.40;73.80;;;12.84;58.79;101582.59;5024547;27;96718;-70
2021/05/19 05:51:05;;;;;;;3.75;2.83;;;9.50;73.80;;;12.88;58.83;101583.59;5045246;27;96851;-70
2021/05/19 05:53:33;;;;;;;0.82;0.65;;;9.50;73.80;;;12.94;58.60;101575.19;5029685;27;96831;-70
2021/05/19 05:56:03;;;;;;;2.58;1.67;;;9.50;73.80;;;12.99;58.57;101579.69;5029505;27;97156;-71
2021/05/19 05:58:32;;;;;;;1.95;0.88;;;9.50;73.80;;;13.00;58.72;101582.06;5043974;27;98313;-70
2021/05/19 06:01:05;;;;;;;2.15;0.57;;;9.60;73.80;;;13.03;59.24;101583.38;5031458;27;97472;-71
2021/05/19 06:03:34;;;;;;;0.52;0.50;;;9.60;73.80;;;13.05;58.57;101589.25;5045350;27;96813;-70
2021/05/19 06:06:06;;;;;;;1.25;1.15;;;9.70;73.90;;;13.10;58.74;101589.16;5033304;27;97146;-70
2021/05/19 06:08:35;;;;;;;1.52;1.42;;;9.70;73.90;;;13.16;58.33;101580.69;5033991;27;97233;-71
2021/05/19 06:11:07;;;;;;;1.02;1.02;;;9.70;73.90;;;13.23;59.01;101597.25;5044931;27;97867;-71
2021/05/19 06:13:36;;;;;;;6.57;1.73;;;9.80;73.90;;;13.30;58.53;101596.84;5024566;27;97225;-71
2021/05/19 06:16:06;;;;;;;1.80;1.70;;;9.80;73.90;;;13.34;58.95;101600.53;5027700;27;96982;-71
2021/05/19 06:18:34;;;;;;;3.60;0.93;;;9.80;73.90;;;13.39;58.53;101609.31;5007218;27;98916;-71
2021/05/19 06:21:06;;;;;;;3.58;1.52;;;9.90;73.90;;;13.42;58.55;101600.66;5031116;27;97805;-70
2021/05/19 06:23:35;;;;;;;0.85;0.85;;;9.90;73.90;;;13.48;58.59;101602.13;5049397;27;96819;-71
2021/05/19 06:26:06;;;;;;;3.00;1.48;;;10.00;73.90;;;13.55;58.58;101605.22;5010517;27;97261;-71
2021/05/19 06:28:34;;;;;;;2.10;0.93;;;10.00;73.90;;;13.60;58.72;101607.81;5044591;27;97418;-71
2021/05/19 06:31:05;;;;;;;0.85;0.82;;;10.10;74.00;;;13.67;58.38;101616.31;5028021;27;99823;-70
2021/05/19 06:33:35;;;;;;;4.28;1.35;;;10.10;73.90;;;13.73;58.44;101606.19;5045252;27;96784;-71
2021/05/19 06:36:06;;;;;;;1.60;1.27;;;10.20;74.00;;;13.80;58.61;101611.97;5031666;27;97004;-71
2021/05/19 06:38:34;;;;;;;4.88;1.65;;;10.20;74.00;;;13.88;58.19;101613.97;5031237;27;97844;-70
2021/05/19 06:41:05;;;;;;;3.17;2.88;;;10.20;73.90;;;13.93;58.04;101613.88;5032103;27;97731;-70
2021/05/19 06:43:33;;;;;;;7.53;2.08;;;10.30;73.90;;;14.00;57.98;101608.84;5044783;27;97496;-70
2021/05/19 06:46:04;;;;;;;1.92;0.88;;;10.30;73.90;;;14.03;57.81;101609.84;5031753;27;97119;-71
2021/05/19 06:48:33;;;;;;;2.10;1.92;;;10.40;73.90;;;14.09;58.02;101611.31;5041649;27;97946;-70
2021/05/19 06:51:04;;;;;;;3.25;2.13;;;10.40;73.90;;;14.19;58.16;101616.53;5034427;27;98120;-71
2021/05/19 06:53:33;;;;;;;0.55;0.55;;;10.50;74.00;;;14.26;57.62;101608.81;5031527;27;97254;-71
2021/05/19 06:56:03;;;;;;;1.88;1.77;;;10.60;74.00;;;14.34;58.07;101610.00;5026389;27;97316;-70
2021/05/19 06:58:32;;;;;;;3.40;2.17;;;10.70;74.00;;;14.47;58.03;101618.03;5031073;27;97082;-71
2021/05/19 07:01:00;;;;;;;0.38;0.38;;;10.80;74.10;;;14.57;57.75;101619.69;5012917;27;97808;-71
2021/05/19 07:03:33;;;;;;;3.10;1.53;;;10.90;74.10;;;14.69;57.73;101618.03;5023791;27;98034;-71
2021/05/19 07:06:03;;;;;;;2.03;1.83;;;11.00;74.10;;;14.81;57.95;101615.56;5043327;27;97152;-70
2021/05/19 07:08:33;;;;;;;1.05;0.88;;;11.10;74.10;;;14.96;58.36;101607.06;5043967;27;97952;-72
2021/05/19 07:11:04;;;;;;;0.70;0.70;;;11.20;74.20;;;15.26;57.76;101611.69;5047055;27;98011;-72
2021/05/19 07:13:41;;;;;;;1.02;1.02;;;11.40;74.30;;;15.53;57.68;101606.09;5043878;27;96720;-72
2021/05/19 07:16:11;;;;;;;2.10;1.95;;;11.60;74.30;;;15.80;56.87;101600.44;5029544;27;96800;-71
2021/05/19 07:18:39;;;;;;;1.35;0.82;;;11.80;74.30;;;16.02;57.67;101598.41;5044950;27;98001;-72
2021/05/19 07:21:07;;;;;;;1.80;0.55;;;12.00;74.20;;;16.27;57.12;101596.84;5049028;27;96723;-72
2021/05/19 07:23:36;;;;;;;1.33;1.20;;;12.20;74.20;;;16.36;58.08;101601.19;5027622;27;99104;-72
2021/05/19 07:26:05;;;;;;;1.27;0.85;;;12.30;74.10;;;16.56;57.21;101595.09;5049839;27;96778;-72
2021/05/19 07:28:34;;;;;;;1.52;0.98;;;12.50;74.40;;;16.98;57.31;101596.94;5046188;27;98141;-72
2021/05/19 07:31:06;;;;;;;1.65;1.40;;;12.70;74.60;;;17.40;57.04;101598.72;5031426;27;97680;-73
2021/05/19 07:33:34;;;;;;;2.30;1.73;;;13.00;74.80;;;17.81;56.83;101606.94;5044356;27;99772;-72
2021/05/19 07:36:06;;;;;;;1.73;1.27;;;13.30;74.70;;;18.01;57.10;101600.75;5050153;27;97021;-72
2021/05/19 07:38:35;;;;;;;1.17;1.08;;;13.60;74.60;;;18.24;56.76;101605.50;5046774;27;97997;-72
2021/05/19 07:41:04;;;;;;;4.78;1.77;;;13.80;74.60;;;18.59;56.87;101609.53;5046199;27;97773;-72
2021/05/19 07:43:32;;;;;;;0.88;0.88;;;14.10;74.90;;;19.14;56.75;101610.72;5028848;27;97394;-72
2021/05/19 07:46:00;;;;;;;2.17;1.70;;;14.40;75.40;;;19.81;56.03;101597.41;5028544;27;97269;-73
2021/05/19 07:48:30;;;;;;;3.78;1.38;;;14.90;75.60;;;20.08;56.71;101604.06;5030910;27;98306;-72
2021/05/19 07:50:57;;;;;;;2.65;1.20;;;15.30;75.20;;;20.22;56.42;101604.50;5009099;27;97727;-73
2021/05/19 07:53:24;;;;;;;2.25;1.65;;;15.60;75.00;;;20.46;56.70;101605.19;5047373;27;97275;-73
2021/05/19 07:55:57;;;;;;;2.65;1.73;;;15.80;74.80;;;20.87;57.13;101593.94;5029616;27;97036;-72
2021/05/19 07:58:30;;;;;;;2.72;1.40;;;16.20;75.00;;;21.59;55.67;101596.88;5025427;27;98422;-73
2021/05/19 08:01:07;;;;;;;9.32;1.88;;;16.60;75.60;;;22.28;55.77;101591.47;5047197;27;96745;-74
2021/05/19 08:03:34;;;;;;;1.35;0.95;;;17.10;75.70;;;22.91;55.56;101598.94;5048283;27;97114;-73
2021/05/19 08:06:03;;;;;;;2.65;2.22;;;17.60;75.50;;;23.38;55.44;101598.63;5030578;27;97178;-74
2021/05/19 08:08:31;;;;;;;8.30;1.88;;;18.10;75.40;;;23.44;56.37;101608.13;5026795;27;98007;-74
2021/05/19 08:10:59;;;;;;;1.27;1.17;;;18.50;75.20;;;23.66;56.50;101597.13;5030649;27;96862;-73
2021/05/19 08:13:26;;;;;;;1.08;0.98;;;18.80;75.30;;;24.04;56.73;101596.91;5044591;27;97199;-73
2021/05/19 08:15:53;;;;;;;2.70;1.30;;;19.10;75.10;;;24.31;56.19;101596.47;5026810;27;97088;-73
2021/05/19 08:18:24;;;;;;;6.80;1.85;;;19.50;75.10;;;24.44;56.72;101603.28;5027073;27;97849;-75
2021/05/19 08:20:52;;;;;;;3.75;1.65;;;19.80;74.70;;;24.56;57.11;101597.59;5045685;27;96773;-74
2021/05/19 08:23:20;;;;;;;3.03;1.92;;;20.00;74.50;;;24.66;57.38;101598.88;5038272;27;96848;-74
2021/05/19 08:25:49;;;;;;;9.57;1.90;;;20.20;74.40;;;25.01;56.97;101594.53;5028137;27;96769;-74
2021/05/19 08:28:18;;;;;;;4.22;1.40;;;20.50;74.30;;;25.33;57.36;101590.16;5025918;27;98086;-74
2021/05/19 08:30:46;;;;;;;21.38;2.00;;;20.80;74.30;;;25.77;56.45;101591.66;5028000;27;97658;-74
2021/05/19 08:33:15;;;;;;;1.90;1.58;;;21.10;74.00;;;25.86;56.78;101594.09;5045876;27;96809;-74
2021/05/19 08:35:59;;;;;;;5.32;1.77;;;21.30;74.00;;;26.04;56.60;101587.50;5033428;27;97416;-74
2021/05/19 08:38:27;;;;;;;4.22;2.40;;;21.50;73.90;;;26.40;56.17;101602.97;5046388;27;97899;-74
2021/05/19 08:40:55;;;;;;;1.90;1.67;;;21.80;73.90;;;26.61;56.32;101600.34;5044284;27;97772;-74
2021/05/19 08:43:24;;;;;;;3.13;1.65;;;22.00;73.70;;;26.80;56.40;101594.47;5042557;27;97079;-74
2021/05/19 08:45:52;;;;;;;2.42;2.10;;;22.30;73.60;;;27.27;55.74;101591.41;5043222;27;97224;-74
2021/05/19 08:48:22;;;;;;;11.38;2.20;;;22.50;73.80;;;27.57;55.61;101594.53;5026420;27;96881;-75
2021/05/19 08:50:51;;;;;;;1.77;1.27;;;22.80;73.40;;;27.69;55.87;101585.84;5044718;27;97684;-75
2021/05/19 08:53:24;;;;;;;2.17;1.30;;;23.10;73.20;;;27.97;55.50;101585.81;5042375;27;96772;-75
2021/05/19 08:55:53;;;;;;;11.80;2.92;;;23.30;73.00;;;27.91;56.08;101582.66;5012066;27;97102;-74
2021/05/19 08:58:21;;;;;;;2.72;1.92;;;23.50;72.70;;;27.56;57.07;101584.69;5041664;27;97077;-74
2021/05/19 09:00:55;;;;;;;23.55;2.80;;;23.50;72.70;;;27.57;56.91;101587.03;5023095;27;96908;-73
2021/05/19 09:03:23;;;;;;;1.33;1.23;;;23.50;72.60;;;27.74;56.80;101591.78;5034935;27;96915;-72
2021/05/19 09:05:53;;;;;;;4.38;1.77;;;23.60;72.40;;;27.92;56.71;101589.78;5030182;27;97712;-71
2021/05/19 09:08:21;;;;;;;1.63;1.48;;;23.70;72.50;;;28.11;56.48;101583.78;5042630;27;98223;-71
2021/05/19 09:11:08;;;;;;;2.55;1.40;;;23.90;72.40;;;28.22;56.46;101584.53;5044989;27;98139;-72
2021/05/19 09:13:44;;;;;;;8.13;1.83;;;24.00;71.80;;;27.96;57.10;101575.97;5012092;27;96807;-72
2021/05/19 09:16:29;;;;;;;1.85;1.45;;;24.00;72.00;;;27.53;57.76;101571.72;5030329;27;97015;-72
2021/05/19 09:18:59;;;;;;;0.95;0.55;;;23.90;72.00;;;27.07;58.30;101568.16;5044381;27;96905;-72
2021/05/19 09:21:39;;;;;;;5.28;1.65;;;23.70;71.70;;;26.77;58.82;101566.97;5013896;27;96832;-72
2021/05/19 09:24:13;;;;;;;1.10;0.65;;;23.40;72.00;;;26.64;58.77;101560.25;5023369;27;96863;-72
2021/05/19 09:26:57;;;;;;;8.15;1.52;;;23.20;72.00;;;26.51;58.71;101559.06;5045465;27;96715;-72
2021/05/19 09:29:29;;;;;;;1.40;0.98;;;23.00;71.90;;;26.33;58.87;101555.44;5043721;27;97070;-71
2021/05/19 09:32:03;;;;;;;2.65;1.33;;;22.80;72.00;;;26.50;57.91;101561.00;5024753;27;97863;-72
2021/05/19 09:34:36;;;;;;;4.22;0.90;;;22.70;72.30;;;26.19;57.93;101555.41;5034804;27;97148;-71
2021/05/19 09:37:20;;;;;;;2.00;1.52;;;22.60;71.80;;;25.63;59.11;101561.34;5044852;27;97240;-71
2021/05/19 09:39:59;;;;;;;1.33;1.02;;;22.40;71.50;;;25.36;59.03;101553.72;5046333;27;96983;-71
2021/05/19 09:42:48;;;;;;;1.50;1.33;;;22.10;72.00;;;25.24;58.81;101554.03;5041825;27;97633;-72
2021/05/19 09:45:24;;;;;;;0.90;0.90;;;21.90;71.80;;;24.97;59.09;101552.59;5044696;27;97309;-74
2021/05/19 09:47:56;;;;;;;1.08;0.98;;;21.70;71.80;;;24.64;59.55;101551.88;5047822;27;97040;-74
2021/05/19 09:50:42;;;;;;;1.23;1.13;;;21.50;71.80;;;24.27;60.34;101556.53;5047751;27;97904;-74
2021/05/19 09:53:14;;;;;;;2.03;0.70;;;21.30;71.70;;;24.06;60.04;101562.53;5028323;27;97714;-74
2021/05/19 09:56:07;;;;;;;4.78;2.45;;;21.10;71.90;;;23.76;60.69;101571.06;5048132;27;96945;-74
2021/05/19 09:58:40;;;;;;;4.57;1.90;;;20.90;71.90;;;23.66;60.56;101566.22;5045650;27;97128;-74
2021/05/19 10:01:09;;;;;;;1.40;1.20;;;20.70;72.70;;;23.55;60.27;101565.28;5047684;27;97153;-74
2021/05/19 10:03:39;;;;;;;1.58;1.45;;;20.50;72.20;;;;;;5030723;27;97814;-73
2021/05/19 10:06:13;;;;;;;3.97;2.40;;;20.40;72.40;;;23.49;59.78;101555.81;5048741;27;97276;-73
2021/05/19 10:08:41;;;;;;;2.10;1.92;;;20.30;72.30;;;23.44;59.91;101553.41;5046102;27;97504;-73
2021/05/19 10:11:11;;;;;;;3.40;1.70;;;20.30;72.50;;;23.39;59.72;101551.75;5049601;27;97631;-73
2021/05/19 10:13:43;;;;;;;4.43;1.13;;;20.20;72.50;;;23.31;59.49;101543.81;5046870;27;96764;-74
2021/05/19 10:16:17;;;;;;;1.92;1.77;;;20.10;72.40;;;23.06;60.03;101558.97;5028409;27;97199;-73
2021/05/19 10:18:52;;;;;;;1.60;1.42;;;20.00;71.90;;;22.88;60.15;101550.47;5049455;27;97215;-73
2021/05/19 10:21:29;;;;;;;12.90;1.90;;;19.90;72.10;;;22.83;60.03;101555.47;5046497;27;96903;-73
2021/05/19 10:24:03;;;;;;;6.13;2.30;;;19.70;72.30;;;22.64;60.01;101555.50;5047109;27;97220;-73
2021/05/19 10:27:03;;;;;;;4.18;1.90;;;19.60;72.10;;;22.28;60.38;101548.53;5043653;27;96762;-74
2021/05/19 10:29:57;;;;;;;3.00;2.35;;;19.40;72.00;;;21.92;60.44;101542.75;5046859;27;97522;-74
2021/05/19 10:32:36;;;;;;;4.93;1.55;;;19.20;71.70;;;21.68;60.42;101542.97;5032038;27;96759;-73
2021/05/19 10:35:10;;;;;;;2.22;1.60;;;18.90;72.00;;;21.37;60.75;101547.66;5051050;27;98316;-73